createdAt,value
2023-01-31T00:24:02.507Z,98882.05
2023-01-31T00:26:32.318Z,98880.25
2023-01-31T00:29:01.450Z,98880.61
2023-01-31T00:31:31.897Z,98883.46
2023-01-31T00:34:00.121Z,98884.77
2023-01-31T00:36:30.829Z,98890.48
2023-01-31T00:39:00.473Z,98889.15
2023-01-31T00:41:29.909Z,98888.87
2023-01-31T00:44:00.637Z,98888.73
2023-01-31T00:46:29.292Z,98886.52
2023-01-31T00:48:57.293Z,98890.48
2023-01-31T00:51:26.810Z,98890.95
2023-01-31T00:53:54.861Z,98886.21
2023-01-31T00:56:23.629Z,98891.56
2023-01-31T00:58:52.563Z,98892.06
2023-01-31T01:01:27.403Z,98891.38
2023-01-31T01:03:56.189Z,98888.84
2023-01-31T01:06:24.259Z,98888.56
2023-01-31T01:08:53.146Z,98887.67
2023-01-31T01:11:26.135Z,98884.52
2023-01-31T01:13:54.224Z,98882.23
2023-01-31T01:16:34.323Z,98880.63
2023-01-31T01:19:05.781Z,98878.21
2023-01-31T01:21:39.444Z,98881.63
2023-01-31T01:24:11.509Z,98882.67
2023-01-31T01:26:40.722Z,98884.92
2023-01-31T01:29:08.836Z,98886.48
2023-01-31T01:31:39.262Z,98887.17
2023-01-31T01:34:09.542Z,98887.24
2023-01-31T01:36:39.796Z,98889.19
2023-01-31T01:39:11.642Z,98892.95
2023-01-31T01:41:39.624Z,98892.27
2023-01-31T01:44:46.970Z,98888.64
2023-01-31T01:47:19.131Z,98887.24
2023-01-31T01:49:53.842Z,98889.48
2023-01-31T01:52:22.755Z,98884.82
2023-01-31T01:54:53.942Z,98886.53
2023-01-31T01:57:26.637Z,98893.02
2023-01-31T02:00:00.903Z,98890.52
2023-01-31T02:02:29.937Z,98888.16
2023-01-31T02:04:57.880Z,98889.59
2023-01-31T02:07:26.728Z,98893.47
2023-01-31T02:10:02.678Z,98889.23
2023-01-31T02:12:30.897Z,98891.42
2023-01-31T02:15:00.562Z,98890.98
2023-01-31T02:17:29.621Z,98888.29
2023-01-31T02:20:36.964Z,98888.86
2023-01-31T02:23:24.929Z,98893.20
2023-01-31T02:26:17.772Z,98893.65
2023-01-31T02:29:12.634Z,98894.62
2023-01-31T02:31:59.292Z,98891.65
2023-01-31T02:34:34.068Z,98891.54
2023-01-31T02:37:20.227Z,98888.73
2023-01-31T02:40:06.403Z,98890.54
2023-01-31T02:43:01.475Z,98893.84
2023-01-31T02:45:59.309Z,98898.09
2023-01-31T02:48:46.645Z,98900.29
2023-01-31T02:51:17.344Z,98902.38
2023-01-31T02:54:08.536Z,98903.70
2023-01-31T02:56:37.196Z,98906.18
2023-01-31T02:59:22.053Z,98908.02
2023-01-31T03:01:56.203Z,98916.23
2023-01-31T03:04:24.209Z,98912.71
2023-01-31T03:07:00.393Z,98911.27
2023-01-31T03:09:40.580Z,98907.09
2023-01-31T03:12:33.584Z,98906.86
2023-01-31T03:15:15.277Z,98913.93
2023-01-31T03:17:58.694Z,98913.71
2023-01-31T03:20:32.755Z,98912.64
2023-01-31T03:23:03.952Z,98913.53
2023-01-31T03:25:33.417Z,98911.98
2023-01-31T03:28:06.494Z,98911.00
2023-01-31T03:30:42.235Z,98908.83
2023-01-31T03:33:17.193Z,98907.85
2023-01-31T03:35:49.273Z,98905.65
2023-01-31T03:38:17.854Z,98906.80
2023-01-31T03:40:57.843Z,98907.05
2023-01-31T03:43:34.735Z,98906.40
2023-01-31T03:46:08.267Z,98911.07
2023-01-31T03:48:39.263Z,98916.78
2023-01-31T03:51:08.913Z,98914.86
2023-01-31T03:53:40.023Z,98916.05
2023-01-31T03:56:13.836Z,98915.62
2023-01-31T03:58:44.842Z,98918.13
2023-01-31T04:01:12.958Z,98926.88
2023-01-31T04:03:43.174Z,98926.46
2023-01-31T04:06:12.176Z,98923.95
2023-01-31T04:08:40.420Z,98920.26
2023-01-31T04:11:11.595Z,98925.92
2023-01-31T04:13:41.292Z,98928.51
2023-01-31T04:16:09.642Z,98927.98
2023-01-31T04:18:38.835Z,98925.70
2023-01-31T04:21:07.279Z,98930.86
2023-01-31T04:23:35.226Z,98930.81
2023-01-31T04:26:03.184Z,98936.33
2023-01-31T04:28:32.103Z,98935.82
2023-01-31T04:30:59.979Z,98942.40
2023-01-31T04:33:27.939Z,98936.13
2023-01-31T04:35:56.037Z,98942.62
2023-01-31T04:38:24.147Z,98941.60
2023-01-31T04:40:54.572Z,98946.35
2023-01-31T04:43:22.498Z,98950.95
2023-01-31T04:45:50.403Z,98953.73
2023-01-31T04:48:18.300Z,98955.96
2023-01-31T04:50:46.308Z,98961.13
2023-01-31T04:53:14.193Z,98958.52
2023-01-31T04:55:42.087Z,98962.71
2023-01-31T04:58:10.242Z,98963.98
2023-01-31T05:00:38.395Z,98963.13
2023-01-31T05:03:06.559Z,98966.16
2023-01-31T05:05:36.356Z,98964.61
2023-01-31T05:08:05.621Z,98961.84
2023-01-31T05:10:34.410Z,98968.09
2023-01-31T05:13:02.426Z,98971.86
2023-01-31T05:15:32.775Z,98974.41
2023-01-31T05:18:03.430Z,98973.31
2023-01-31T05:20:38.400Z,98981.00
2023-01-31T05:23:06.856Z,98982.31
2023-01-31T05:25:36.078Z,98978.20
2023-01-31T05:28:04.819Z,98980.92
2023-01-31T05:30:33.319Z,98983.91
2023-01-31T05:33:01.747Z,98988.55
2023-01-31T06:27:23.507Z,99018.29
2023-01-31T06:29:51.777Z,99020.37
2023-01-31T06:32:19.967Z,99019.70
2023-01-31T06:49:21.396Z,99031.61
2023-01-31T06:51:53.103Z,99039.61
2023-01-31T06:54:20.998Z,99042.41
2023-01-31T06:56:49.059Z,99047.27
2023-01-31T06:59:17.292Z,99048.42
2023-01-31T07:01:45.382Z,99048.98
2023-01-31T07:04:13.721Z,99050.70
2023-01-31T07:06:41.545Z,99055.89
2023-01-31T07:09:09.488Z,99055.70
2023-01-31T07:11:38.444Z,99055.86
2023-01-31T07:14:09.785Z,99064.29
2023-01-31T07:16:41.052Z,99065.55
2023-01-31T07:19:08.936Z,99061.09
2023-01-31T07:21:37.051Z,99065.17
2023-01-31T07:24:05.263Z,99068.11
2023-01-31T07:26:33.600Z,99072.16
2023-01-31T07:29:01.634Z,99072.63
2023-01-31T07:31:30.083Z,99073.85
2023-01-31T07:33:58.002Z,99072.11
2023-01-31T07:36:26.797Z,99073.44
2023-01-31T07:38:56.038Z,99075.80
2023-01-31T07:41:24.509Z,99077.21
2023-01-31T07:43:52.433Z,99076.20
2023-01-31T07:46:20.988Z,99079.66
2023-01-31T07:48:49.766Z,99086.80
2023-01-31T07:51:18.807Z,99087.92
2023-01-31T07:53:46.873Z,99089.16
2023-01-31T07:56:16.524Z,99090.39
2023-01-31T07:58:45.612Z,99090.17
2023-01-31T08:01:36.827Z,99091.04
2023-01-31T08:04:19.869Z,99089.05
2023-01-31T08:06:48.770Z,99088.36
2023-01-31T08:09:16.624Z,99091.09
2023-01-31T08:11:46.089Z,99094.77
2023-01-31T08:14:14.260Z,99092.16
2023-01-31T08:16:42.141Z,99096.90
2023-01-31T08:19:10.076Z,99097.73
2023-01-31T08:21:38.066Z,99100.13
2023-01-31T08:24:06.242Z,99105.13
2023-01-31T08:26:34.505Z,99109.38
2023-01-31T08:29:02.321Z,99117.43
2023-01-31T08:31:30.507Z,99117.95
2023-01-31T08:33:58.630Z,99115.21
2023-01-31T08:36:29.502Z,99119.55
2023-01-31T08:38:58.014Z,99123.63
2023-01-31T08:41:26.789Z,99127.61
2023-01-31T08:43:58.069Z,99132.83
2023-01-31T08:46:31.496Z,99131.23
2023-01-31T08:49:00.734Z,99135.23
2023-01-31T08:51:29.084Z,99131.05
2023-01-31T08:53:58.219Z,99131.15
2023-01-31T08:56:27.877Z,99130.32
2023-01-31T08:58:57.298Z,99132.11
2023-01-31T09:01:26.165Z,99132.62
2023-01-31T09:03:57.090Z,99130.74
2023-01-31T09:06:27.102Z,99132.27
2023-01-31T09:09:00.101Z,99134.67
2023-01-31T09:11:30.354Z,99136.63
2023-01-31T09:13:59.065Z,99130.89
2023-01-31T09:16:27.196Z,99131.63
2023-01-31T09:18:56.307Z,99131.90
2023-01-31T09:21:24.448Z,99130.60
2023-01-31T09:23:57.394Z,99127.81
2023-01-31T09:26:25.310Z,99126.15
2023-01-31T09:28:53.399Z,99131.79
2023-01-31T09:31:21.622Z,99130.36
2023-01-31T09:33:49.799Z,99129.05
2023-01-31T09:36:20.647Z,99128.41
2023-01-31T09:38:49.152Z,99131.98
2023-01-31T09:41:19.960Z,99125.75
2023-01-31T09:43:50.873Z,99125.33
2023-01-31T09:46:19.802Z,99119.36
2023-01-31T09:48:51.203Z,99121.15
2023-01-31T09:51:19.891Z,99123.43
2023-01-31T09:53:47.899Z,99122.59
2023-01-31T09:56:32.135Z,99132.41
2023-01-31T09:59:12.929Z,99133.45
2023-01-31T10:01:59.298Z,99128.63
2023-01-31T10:04:44.792Z,99135.30
2023-01-31T10:07:16.249Z,99135.91
2023-01-31T10:09:46.805Z,99132.43
2023-01-31T10:12:17.945Z,99131.52
2023-01-31T10:14:50.303Z,99132.83
2023-01-31T10:17:28.027Z,99134.63
2023-01-31T10:20:05.950Z,99132.19
2023-01-31T10:22:46.765Z,99132.23
2023-01-31T10:25:51.592Z,99132.67
2023-01-31T10:28:23.748Z,99128.58
2023-01-31T10:31:06.752Z,99131.08
2023-01-31T10:33:43.866Z,99126.70
2023-01-31T10:36:19.613Z,99133.95
2023-01-31T10:39:14.675Z,99133.88
2023-01-31T10:42:03.813Z,99132.01
2023-01-31T10:44:54.940Z,99129.83
2023-01-31T10:47:33.136Z,99126.54
2023-01-31T10:50:11.820Z,99130.67
2023-01-31T10:52:53.899Z,99123.29
2023-01-31T10:55:46.298Z,99120.53
2023-01-31T10:58:16.534Z,99118.84
2023-01-31T11:00:46.932Z,99119.83
2023-01-31T11:03:15.164Z,99121.57
2023-01-31T11:05:52.119Z,99122.70
2023-01-31T11:08:26.724Z,99118.38
2023-01-31T11:10:55.483Z,99119.21
2023-01-31T11:13:23.686Z,99120.53
2023-01-31T11:15:55.547Z,99121.54
2023-01-31T11:18:30.929Z,99121.91
2023-01-31T11:20:59.867Z,99130.59
2023-01-31T11:23:29.615Z,99127.42
2023-01-31T11:25:57.793Z,99130.10
2023-01-31T11:28:35.890Z,99130.38
2023-01-31T11:31:08.762Z,99122.71
2023-01-31T11:33:47.644Z,99121.94
2023-01-31T11:36:17.457Z,99123.21
2023-01-31T11:38:46.146Z,99126.58
2023-01-31T11:41:27.982Z,99128.42
2023-01-31T11:44:10.423Z,99127.19
2023-01-31T11:46:51.228Z,99131.30
2023-01-31T11:49:40.672Z,99124.02
2023-01-31T12:05:13.945Z,99119.03
2023-01-31T12:07:50.339Z,99116.71
2023-01-31T12:10:41.561Z,99118.61
2023-01-31T12:13:19.817Z,99122.21
2023-01-31T12:16:14.548Z,99125.65
2023-01-31T12:18:55.552Z,99124.55
2023-01-31T12:21:23.398Z,99128.23
2023-01-31T12:23:57.939Z,99133.61
2023-01-31T12:26:41.965Z,99137.80
2023-01-31T12:29:27.234Z,99130.83
2023-01-31T12:32:28.308Z,99129.54
2023-01-31T12:35:08.902Z,99132.52
2023-01-31T12:37:58.039Z,99137.79
2023-01-31T12:40:39.020Z,99142.89
2023-01-31T12:43:32.431Z,99147.84
2023-01-31T12:46:13.047Z,99144.14
2023-01-31T12:48:47.793Z,99144.01
2023-01-31T12:51:20.730Z,99147.95
2023-01-31T12:53:55.131Z,99144.95
2023-01-31T12:56:42.016Z,99146.21
2023-01-31T12:59:42.227Z,99149.30
2023-01-31T13:02:11.873Z,99146.80
2023-01-31T13:04:47.601Z,99145.64
2023-01-31T13:07:39.044Z,99144.86
2023-01-31T13:10:14.884Z,99147.79
2023-01-31T13:12:42.799Z,99149.61
2023-01-31T13:15:42.478Z,99144.07
2023-01-31T13:18:10.539Z,99145.26
2023-01-31T13:20:45.854Z,99145.57
2023-01-31T13:23:23.533Z,99148.23
2023-01-31T13:25:55.009Z,99150.98
2023-01-31T13:28:25.583Z,99148.95
2023-01-31T13:30:59.124Z,99157.16
2023-01-31T13:33:37.099Z,99155.39
2023-01-31T13:36:57.617Z,99154.64
2023-01-31T13:39:55.292Z,99154.46
2023-01-31T13:42:23.339Z,99155.73
